Time;durP1;ratioP1;P1;durP2;ratioP2;P2;SDS_P1;SDS_P2;PMS_P1;PMS_P2;Temp;Humidity;BMP_temperature;BMP_pressure;BME280_temperature;BME280_humidity;BME280_pressure;Samples;Min_cycle;Max_cycle;Signal;HPM_P1;HPM_P2
2022/11/05 00:09:28;;;;;;;17.45;8.93;;;;;;;5.65;100.00;100598.53;5028220;28;20041;-76
2022/11/05 00:16:42;;;;;;;19.48;8.93;;;;;;;5.54;100.00;100619.22;5030910;28;20041;-77
2022/11/05 00:16:52;;;;;;;;;;;;;;;5.45;100.00;100624.31;5024272;28;20033;-79
2022/11/05 00:19:19;;;;;;;22.38;10.98;;;;;;;5.41;100.00;100626.00;5023635;28;20391;-75
2022/11/05 00:27:13;;;;;;;20.05;10.48;;;;;;;5.32;100.00;100633.66;5031733;28;20037;-77
2022/11/05 00:29:40;;;;;;;17.75;9.40;;;;;;;5.33;100.00;100637.13;5033019;28;20038;-77
2022/11/05 00:32:08;;;;;;;17.92;11.27;;;;;;;5.34;100.00;100633.69;5030136;28;20493;-81
2022/11/05 00:34:35;;;;;;;20.80;9.85;;;;;;;5.33;100.00;100639.72;5026127;28;20033;-76
2022/11/05 00:37:01;;;;;;;17.75;8.95;;;;;;;5.28;100.00;100643.13;5008318;28;20053;-78
2022/11/05 00:39:28;;;;;;;19.52;10.00;;;;;;;5.29;100.00;100647.47;5036802;28;20519;-77
2022/11/05 00:50:03;;;;;;;19.02;9.25;;;;;;;5.18;100.00;100656.84;5031910;28;20033;-78
2022/11/05 00:55:13;;;;;;;14.05;9.32;;;;;;;5.15;100.00;100646.44;5025585;28;20124;-78
2022/11/05 00:57:41;;;;;;;15.90;9.23;;;;;;;5.13;100.00;100653.31;5013775;28;20698;-78
2022/11/05 01:00:10;;;;;;;13.05;9.05;;;;;;;5.11;100.00;100653.31;5036882;28;20057;-78
2022/11/05 01:02:36;;;;;;;18.52;10.52;;;;;;;5.10;100.00;100656.75;5026794;28;20048;-77
2022/11/05 01:05:03;;;;;;;17.50;9.63;;;;;;;5.12;100.00;100654.16;5028693;28;20404;-81
2022/11/05 01:07:30;;;;;;;20.25;9.75;;;;;;;5.14;100.00;100662.84;5038504;28;20049;-76
2022/11/05 01:09:56;;;;;;;16.50;9.40;;;;;;;5.13;100.00;100668.88;5039126;28;20519;-77
2022/11/05 01:12:23;;;;;;;16.92;9.80;;;;;;;5.09;100.00;100674.88;5028378;28;20607;-79
2022/11/05 01:14:50;;;;;;;19.65;9.65;;;;;;;5.09;100.00;100680.94;5031272;28;20030;-75
2022/11/05 01:17:16;;;;;;;15.57;9.18;;;;;;;5.08;100.00;100679.19;5040036;28;20117;-76
2022/11/05 01:19:43;;;;;;;18.83;9.82;;;;;;;5.11;100.00;100668.88;5035554;28;20053;-76
2022/11/05 01:22:09;;;;;;;15.73;8.50;;;;;;;5.09;100.00;100673.16;5043031;28;20049;-76
2022/11/05 01:24:36;;;;;;;21.70;9.45;;;;;;;5.07;100.00;100673.97;5028807;28;20063;-79
2022/11/05 01:27:02;;;;;;;15.98;8.38;;;;;;;5.01;100.00;100682.56;5041133;28;20406;-83
2022/11/05 01:29:31;;;;;;;13.98;7.50;;;;;;;5.01;100.00;100682.56;5024512;28;20136;-76
2022/11/05 01:31:57;;;;;;;17.65;8.45;;;;;;;5.02;100.00;100692.09;5026486;28;20053;-76
2022/11/05 01:34:24;;;;;;;11.90;6.90;;;;;;;4.96;100.00;100687.66;5028811;28;20097;-78
2022/11/05 01:36:51;;;;;;;14.63;8.65;;;;;;;4.96;100.00;100689.41;5024482;28;20049;-80
2022/11/05 01:39:18;;;;;;;15.18;8.10;;;;;;;4.93;100.00;100689.38;5023133;28;20219;-76
2022/11/05 01:41:44;;;;;;;15.68;8.13;;;;;;;4.98;100.00;100695.50;5044377;28;20045;-76
2022/11/05 01:45:08;;;;;;;14.63;8.20;;;;;;;4.93;100.00;100681.59;5023979;28;20045;-76
2022/11/05 01:47:59;;;;;;;13.50;6.97;;;;;;;4.92;100.00;100677.25;4934664;29;20083;-76
2022/11/05 01:50:46;;;;;;;18.45;8.07;;;;;;;4.90;100.00;100679.81;5006186;28;20057;-77
2022/11/05 01:53:23;;;;;;;12.90;8.00;;;;;;;4.89;100.00;100688.44;5027109;28;20080;-80
2022/11/05 01:55:59;;;;;;;11.75;7.20;;;;;;;4.88;100.00;100680.66;5023079;28;20496;-77
2022/11/05 01:58:34;;;;;;;14.48;8.43;;;;;;;4.85;100.00;100690.97;5021593;28;20113;-76
2022/11/05 02:01:01;;;;;;;14.27;7.47;;;;;;;4.83;100.00;100690.94;5027305;28;20352;-80
2022/11/05 02:03:29;;;;;;;18.23;8.10;;;;;;;4.81;100.00;100692.66;5035276;28;20073;-77
2022/11/05 02:05:59;;;;;;;16.58;7.43;;;;;;;4.82;100.00;100681.41;5035927;28;20037;-76
2022/11/05 02:08:40;;;;;;;12.43;7.88;;;;;;;4.83;100.00;100690.94;5044594;28;20045;-78
2022/11/05 02:11:07;;;;;;;18.42;7.68;;;;;;;4.82;100.00;100696.13;5037668;28;20041;-77
2022/11/05 02:13:33;;;;;;;19.52;6.65;;;;;;;4.77;100.00;100694.31;5027167;28;20060;-76
2022/11/05 02:16:36;;;;;;;16.52;7.00;;;;;;;4.77;100.00;100691.72;5031367;28;20041;-80
2022/11/05 02:19:18;;;;;;;15.00;8.35;;;;;;;4.78;100.00;100692.59;5017214;28;20075;-78
2022/11/05 02:22:38;;;;;;;18.88;7.25;;;;;;;4.74;100.00;100694.25;5020976;28;20080;-76
2022/11/05 02:25:39;;;;;;;16.33;6.97;;;;;;;4.73;100.00;100702.03;5020629;28;20616;-85
2022/11/05 02:28:50;;;;;;;14.75;6.82;;;;;;;4.75;100.00;100703.78;5026479;28;20176;-76
2022/11/05 02:31:46;;;;;;;12.45;6.18;;;;;;;4.77;100.00;100699.50;5005038;28;20061;-76
2022/11/05 02:34:44;;;;;;;9.82;5.25;;;;;;;4.74;100.00;100699.44;5028567;28;20755;-81
2022/11/05 02:37:32;;;;;;;14.73;6.20;;;;;;;4.71;100.00;100696.81;5030955;28;20706;-76
2022/11/05 02:40:23;;;;;;;11.70;5.63;;;;;;;4.70;100.00;100694.22;5026321;28;20038;-76
2022/11/05 02:43:26;;;;;;;15.32;5.50;;;;;;;4.71;100.00;100689.03;5020289;28;20111;-76
2022/11/05 02:46:17;;;;;;;11.38;5.50;;;;;;;4.70;100.00;100691.59;5025536;28;20042;-76
2022/11/05 02:49:03;;;;;;;8.05;4.28;;;;;;;4.70;100.00;100692.47;5028529;28;20771;-77
2022/11/05 02:51:57;;;;;;;11.30;5.25;;;;;;;4.68;100.00;100694.19;5040459;28;20456;-79
2022/11/05 02:54:50;;;;;;;11.15;5.15;;;;;;;4.65;100.00;100694.13;5022455;28;20521;-78
2022/11/05 02:57:21;;;;;;;13.80;4.57;;;;;;;4.62;100.00;100694.94;5032863;28;20046;-82
2022/11/05 02:59:47;;;;;;;13.15;5.18;;;;;;;4.59;100.00;100694.03;5026453;28;20045;-78
2022/11/05 03:02:14;;;;;;;10.95;4.43;;;;;;;4.61;100.00;100700.97;5012559;28;20717;-76
2022/11/05 03:04:41;;;;;;;9.38;4.90;;;;;;;4.63;100.00;100699.28;5020397;28;20095;-77
2022/11/05 03:07:26;;;;;;;10.77;4.60;;;;;;;4.67;100.00;100694.13;5033763;28;20063;-76
2022/11/05 03:10:15;;;;;;;7.68;4.40;;;;;;;4.61;100.00;100702.69;5037003;28;20032;-77
2022/11/05 03:13:09;;;;;;;9.00;4.32;;;;;;;4.58;100.00;100705.25;5009110;28;20577;-76
2022/11/05 03:16:40;;;;;;;6.60;4.23;;;;;;;4.56;100.00;100709.53;5031054;28;20049;-77
2022/11/05 03:19:28;;;;;;;9.45;4.20;;;;;;;4.52;100.00;100708.59;4974426;28;20540;-80
2022/11/05 03:22:07;;;;;;;9.52;4.57;;;;;;;4.49;100.00;100711.16;5025929;28;20080;-76
2022/11/05 03:24:40;;;;;;;8.43;3.80;;;;;;;4.51;100.00;100716.34;5011608;28;20734;-75
2022/11/05 03:27:13;;;;;;;8.30;4.37;;;;;;;4.49;100.00;100713.75;5020106;28;20459;-77
2022/11/05 03:29:48;;;;;;;10.38;4.20;;;;;;;4.49;100.00;100720.66;5027937;28;20825;-78
2022/11/05 03:32:16;;;;;;;10.05;3.72;;;;;;;4.50;100.00;100719.78;5013107;28;20114;-75
2022/11/05 03:34:51;;;;;;;8.52;3.92;;;;;;;4.48;100.00;100727.53;5000052;28;20049;-75
2022/11/05 03:37:22;;;;;;;13.82;3.45;;;;;;;4.45;100.00;100725.78;5014697;28;20141;-77
2022/11/05 03:40:00;;;;;;;15.65;3.70;;;;;;;4.45;100.00;100722.31;5021680;28;20041;-85
2022/11/05 03:42:31;;;;;;;11.75;3.42;;;;;;;4.41;100.00;100725.72;5019902;28;20146;-80
2022/11/05 03:45:00;;;;;;;6.43;3.92;;;;;;;4.39;100.00;100732.56;5011634;28;20121;-76
2022/11/05 03:47:35;;;;;;;5.85;3.15;;;;;;;4.38;100.00;100725.63;5035534;28;20042;-77
2022/11/05 03:50:19;;;;;;;7.38;3.03;;;;;;;4.39;100.00;100727.38;5036118;28;20048;-75
2022/11/05 03:53:04;;;;;;;13.00;3.90;;;;;;;4.37;100.00;100727.38;5008167;28;20038;-81
2022/11/05 03:55:58;;;;;;;8.05;4.07;;;;;;;4.34;100.00;100734.22;5001243;28;20131;-80
2022/11/05 03:58:26;;;;;;;5.22;2.53;;;;;;;4.29;100.00;100739.31;5014200;28;20224;-77
2022/11/05 04:00:52;;;;;;;9.32;3.63;;;;;;;4.27;100.00;100744.47;5033379;28;20029;-78
2022/11/05 04:03:21;;;;;;;6.70;3.50;;;;;;;4.25;100.00;100748.75;5028891;28;20066;-81
2022/11/05 04:13:22;;;;;;;5.72;3.92;;;;;;;4.25;100.00;100747.88;5002777;28;20124;-77
2022/11/05 04:14:03;;;;;;;7.63;2.88;;;;;;;4.20;100.00;100763.34;5016067;28;20053;-78
2022/11/05 04:24:06;;;;;;;;;;;;;;;4.23;100.00;100768.56;5035981;28;20037;-81
2022/11/05 04:24:44;;;;;;;8.65;2.97;;;;;;;4.13;100.00;100775.31;5010429;28;20034;-79
2022/11/05 04:27:11;;;;;;;12.20;2.80;;;;;;;4.09;100.00;100770.03;5011467;28;20050;-80
2022/11/05 04:32:21;;;;;;;10.68;3.50;;;;;;;4.08;100.00;100773.44;5024926;28;20048;-88
2022/11/05 04:34:48;;;;;;;8.27;3.97;;;;;;;4.12;100.00;100770.09;5032708;28;20045;-78
2022/11/05 04:37:18;;;;;;;7.15;3.10;;;;;;;4.08;100.00;100773.44;5031899;28;20049;-75
2022/11/05 04:39:47;;;;;;;6.80;1.90;;;;;;;4.07;100.00;100779.50;5045955;28;20045;-76
2022/11/05 04:42:14;;;;;;;9.45;2.60;;;;;;;4.04;100.00;100782.00;5033313;28;20496;-76
2022/11/05 04:44:43;;;;;;;6.13;2.88;;;;;;;4.01;100.00;100788.00;5063080;28;20037;-76
2022/11/05 04:47:09;;;;;;;9.20;2.88;;;;;;;4.07;100.00;100790.72;5040711;28;20438;-76
2022/11/05 04:49:36;;;;;;;10.63;2.53;;;;;;;4.10;100.00;100790.78;5023162;28;20131;-77
2022/11/05 04:52:03;;;;;;;8.90;2.42;;;;;;;4.10;100.00;100783.00;5028976;28;20064;-76
2022/11/05 04:54:32;;;;;;;5.50;2.03;;;;;;;4.08;100.00;100791.59;5006856;28;20620;-76
2022/11/05 04:56:59;;;;;;;7.35;2.50;;;;;;;4.01;100.00;100790.59;5031704;28;20482;-77
2022/11/05 04:59:25;;;;;;;7.72;2.35;;;;;;;4.01;100.00;100795.78;5030661;28;20057;-83
2022/11/05 05:01:52;;;;;;;9.85;2.70;;;;;;;4.01;100.00;100789.75;5030686;28;20416;-76
2022/11/05 05:04:19;;;;;;;13.75;2.55;;;;;;;4.04;100.00;100801.03;5039183;28;20049;-83
2022/11/05 05:06:46;;;;;;;9.68;2.88;;;;;;;4.07;100.00;100795.03;5031567;28;20180;-77
2022/11/05 05:09:12;;;;;;;10.20;2.38;;;;;;;4.07;100.00;100805.41;5029042;28;20045;-76
2022/11/05 05:11:39;;;;;;;9.38;2.80;;;;;;;4.04;100.00;100803.63;5035505;28;20050;-76
2022/11/05 05:14:06;;;;;;;12.93;3.10;;;;;;;3.99;100.00;100797.47;5027066;28;20495;-76
2022/11/05 05:16:33;;;;;;;9.60;3.95;;;;;;;3.98;100.00;100806.09;5031136;28;20038;-82
2022/11/05 05:18:59;;;;;;;8.60;3.65;;;;;;;3.97;100.00;100806.94;5040805;28;20279;-79
2022/11/05 05:21:41;;;;;;;11.50;2.50;;;;;;;3.96;100.00;100806.06;5069050;28;20056;-77
2022/11/05 05:24:15;;;;;;;16.90;2.97;;;;;;;3.96;100.00;100807.75;5029498;28;20054;-81
2022/11/05 05:26:45;;;;;;;13.95;3.25;;;;;;;3.96;100.00;100808.66;5011604;28;20056;-78
2022/11/05 05:29:12;;;;;;;6.25;2.50;;;;;;;3.95;100.00;100818.94;5024413;28;20412;-76
2022/11/05 05:31:39;;;;;;;10.57;2.60;;;;;;;3.92;100.00;100818.91;5027306;28;20053;-77
2022/11/05 05:34:07;;;;;;;4.68;1.45;;;;;;;3.90;100.00;100818.88;5015096;28;20120;-76
2022/11/05 05:36:34;;;;;;;5.00;1.73;;;;;;;3.86;100.00;100813.59;5032421;28;20120;-77
2022/11/05 05:39:01;;;;;;;10.93;2.53;;;;;;;3.86;100.00;100826.53;5021971;28;20045;-79
2022/11/05 05:41:28;;;;;;;7.75;2.45;;;;;;;3.88;100.00;100824.88;5028773;28;20080;-80
2022/11/05 05:43:54;;;;;;;3.92;1.77;;;;;;;3.87;100.00;100824.00;5029658;28;20073;-77
2022/11/05 05:46:21;;;;;;;7.05;1.88;;;;;;;3.84;100.00;100830.81;5012647;28;20041;-79
2022/11/05 05:48:52;;;;;;;9.15;1.98;;;;;;;3.86;100.00;100831.72;5048016;28;20124;-79
2022/11/05 05:51:19;;;;;;;6.75;1.85;;;;;;;3.87;100.00;100841.25;5028579;28;20045;-79
2022/11/05 05:53:46;;;;;;;6.80;1.70;;;;;;;3.91;100.00;100837.88;5011482;28;20046;-78
2022/11/05 05:56:13;;;;;;;12.68;2.47;;;;;;;3.91;100.00;100840.47;5028892;28;20037;-77
2022/11/05 05:58:42;;;;;;;4.10;1.77;;;;;;;3.93;100.00;100839.66;5050315;28;20045;-77
2022/11/05 06:01:12;;;;;;;3.28;1.30;;;;;;;3.92;100.00;100834.44;5027424;28;20511;-79
2022/11/05 06:03:41;;;;;;;13.38;2.42;;;;;;;3.94;100.00;100840.53;5028929;28;20050;-78
2022/11/05 06:06:13;;;;;;;7.95;2.17;;;;;;;3.92;100.00;100832.72;5028700;28;20748;-77
2022/11/05 06:08:41;;;;;;;4.93;1.70;;;;;;;3.93;100.00;100836.19;5028204;28;20108;-80
2022/11/05 06:11:09;;;;;;;11.07;2.00;;;;;;;3.91;100.00;100833.59;5026371;28;20049;-79
2022/11/05 06:13:38;;;;;;;12.65;2.42;;;;;;;3.91;100.00;100843.03;5037168;28;20045;-77
2022/11/05 06:16:07;;;;;;;11.00;2.40;;;;;;;3.91;100.00;100843.94;5034819;28;20038;-82
2022/11/05 06:18:34;;;;;;;10.13;2.05;;;;;;;3.91;100.00;100843.03;5013787;28;20065;-84
2022/11/05 06:21:10;;;;;;;11.73;2.20;;;;;;;3.89;100.00;100847.34;5028643;28;20049;-76
2022/11/05 06:23:39;;;;;;;7.97;2.67;;;;;;;3.95;100.00;100852.63;5038074;28;20052;-77
2022/11/05 06:26:10;;;;;;;10.48;2.58;;;;;;;3.91;100.00;100854.31;5017939;28;20041;-77
2022/11/05 06:28:37;;;;;;;11.57;3.65;;;;;;;3.88;100.00;100854.22;5028525;28;20400;-77
2022/11/05 06:31:04;;;;;;;19.08;3.38;;;;;;;3.91;100.00;100858.59;5030623;28;20045;-77
2022/11/05 06:33:31;;;;;;;6.15;2.95;;;;;;;3.91;100.00;100854.31;5043893;28;20049;-80
2022/11/05 06:36:00;;;;;;;5.45;2.15;;;;;;;3.89;100.00;100858.56;5031982;28;20063;-76
2022/11/05 06:38:28;;;;;;;5.90;1.95;;;;;;;3.89;100.00;100860.28;5032993;28;20059;-75
2022/11/05 06:40:54;;;;;;;6.30;2.88;;;;;;;3.90;100.00;100852.53;5034901;28;20065;-78
2022/11/05 06:43:21;;;;;;;6.88;3.38;;;;;;;3.91;100.00;100862.06;5037511;28;20073;-77
2022/11/05 06:46:06;;;;;;;6.72;3.00;;;;;;;3.95;100.00;100871.66;5040286;28;20045;-78
2022/11/05 06:48:34;;;;;;;6.72;2.50;;;;;;;3.94;100.00;100869.03;5036770;28;20053;-77
2022/11/05 06:51:01;;;;;;;9.10;2.70;;;;;;;3.92;100.00;100873.28;5021508;28;20058;-85
2022/11/05 06:53:28;;;;;;;8.32;2.72;;;;;;;3.92;100.00;100878.47;5023838;28;20051;-77
2022/11/05 06:55:55;;;;;;;9.98;2.85;;;;;;;3.89;100.00;100878.41;5043788;28;20103;-77
2022/11/05 06:58:22;;;;;;;9.23;3.00;;;;;;;3.93;100.00;100898.34;5021488;28;20056;-82
2022/11/05 07:00:48;;;;;;;6.82;2.72;;;;;;;3.92;100.00;100907.81;5043602;28;20087;-76
2022/11/05 07:03:15;;;;;;;5.22;2.58;;;;;;;3.92;100.00;100902.66;5037161;28;20042;-76
2022/11/05 07:05:52;;;;;;;11.07;4.18;;;;;;;3.98;100.00;100900.19;5035244;28;20037;-80
2022/11/05 07:08:18;;;;;;;6.63;3.03;;;;;;;4.02;100.00;100897.69;5032797;28;20064;-77
2022/11/05 07:10:45;;;;;;;7.85;2.92;;;;;;;4.11;100.00;100897.88;5031389;28;20128;-75
2022/11/05 07:13:11;;;;;;;7.20;3.17;;;;;;;4.12;100.00;100900.50;5033211;28;20075;-77
2022/11/05 07:15:38;;;;;;;4.43;2.70;;;;;;;4.12;100.00;100897.91;5023701;28;20488;-82
2022/11/05 07:18:07;;;;;;;6.55;3.42;;;;;;;4.14;100.00;100909.16;5031831;28;20779;-76
2022/11/05 07:20:33;;;;;;;7.47;3.05;;;;;;;4.18;100.00;100909.25;5031718;28;20099;-76
2022/11/05 07:23:06;;;;;;;12.32;3.78;;;;;;;4.21;100.00;100914.50;5026617;28;20531;-78
2022/11/05 07:25:34;;;;;;;9.25;3.42;;;;;;;4.18;100.00;100917.03;5027557;28;20037;-76
2022/11/05 07:28:02;;;;;;;8.85;3.55;;;;;;;4.24;100.00;100919.75;5028688;28;20127;-83
2022/11/05 07:30:30;;;;;;;9.90;3.55;;;;;;;4.28;100.00;100925.03;5030207;28;20096;-77
2022/11/05 07:32:57;;;;;;;6.30;3.63;;;;;;;4.30;100.00;100920.75;5032075;28;20068;-76
2022/11/05 07:35:24;;;;;;;11.23;4.25;;;;;;;4.34;100.00;100926.00;5064795;28;20093;-76
2022/11/05 07:37:54;;;;;;;15.18;4.93;;;;;;;4.37;100.00;100923.47;5051847;28;20467;-76
2022/11/05 07:40:24;;;;;;;7.32;3.90;;;;;;;4.38;100.00;100928.69;5033948;28;20551;-75
2022/11/05 07:42:56;;;;;;;8.18;3.30;;;;;;;4.41;100.00;100928.75;5032708;28;20120;-76
2022/11/05 07:45:24;;;;;;;7.88;3.65;;;;;;;4.44;100.00;100933.13;5040874;28;20501;-76
2022/11/05 07:47:54;;;;;;;7.95;3.72;;;;;;;4.54;100.00;100935.06;5053026;28;20926;-76
2022/11/05 07:50:24;;;;;;;8.82;4.20;;;;;;;4.60;100.00;100936.91;5032114;28;20045;-77
2022/11/05 07:52:51;;;;;;;9.60;2.70;;;;;;;4.65;100.00;100937.84;5029681;28;20477;-78
2022/11/05 07:55:21;;;;;;;5.85;3.28;;;;;;;4.68;100.00;100939.63;5045890;28;20033;-77
2022/11/05 07:57:57;;;;;;;8.10;3.85;;;;;;;4.71;100.00;100948.38;5029663;28;20049;-76
2022/11/05 08:00:26;;;;;;;8.55;4.25;;;;;;;4.78;100.00;100945.06;5028851;28;20136;-78
2022/11/05 08:03:14;;;;;;;12.60;4.70;;;;;;;4.84;100.00;100951.19;5032308;28;20045;-77
2022/11/05 08:05:43;;;;;;;9.43;4.35;;;;;;;4.91;100.00;100942.69;5036163;28;20037;-78
2022/11/05 08:08:11;;;;;;;7.32;4.40;;;;;;;4.95;100.00;100952.28;5030052;28;20385;-76
2022/11/05 08:10:38;;;;;;;15.00;5.55;;;;;;;5.03;100.00;100960.19;5052660;28;20064;-78
2022/11/05 08:13:06;;;;;;;7.63;3.45;;;;;;;5.08;100.00;100951.66;5013626;28;20046;-78
2022/11/05 08:15:33;;;;;;;7.20;3.70;;;;;;;5.16;100.00;100954.38;5032336;28;20037;-77
2022/11/05 08:18:11;;;;;;;14.75;3.85;;;;;;;5.26;100.00;100955.44;5030538;28;20117;-77
2022/11/05 08:20:38;;;;;;;9.77;4.22;;;;;;;5.35;100.00;100957.31;5030966;28;20033;-77
2022/11/05 08:23:05;;;;;;;7.47;3.50;;;;;;;5.47;100.00;100965.31;5028025;28;20119;-87
2022/11/05 08:25:32;;;;;;;9.05;3.85;;;;;;;5.59;100.00;100964.63;5044875;28;20054;-80
2022/11/05 08:28:06;;;;;;;8.50;3.30;;;;;;;5.66;100.00;100970.81;5013190;28;20488;-78
2022/11/05 08:30:33;;;;;;;;;;;;;;;5.75;100.00;100969.25;5031276;28;20044;-82
2022/11/05 08:33:03;;;;;;;8.40;4.00;;;;;;;5.80;100.00;100972.78;5029747;28;20319;-80
2022/11/05 08:35:30;;;;;;;7.75;5.22;;;;;;;5.87;100.00;100976.34;5020961;28;20042;-77
2022/11/05 08:38:03;;;;;;;7.25;4.45;;;;;;;5.92;100.00;100979.91;5041402;28;20067;-77
2022/11/05 08:40:33;;;;;;;5.82;3.63;;;;;;;6.02;100.00;100977.47;5030398;28;20051;-78
2022/11/05 08:43:02;;;;;;;8.43;3.60;;;;;;;6.14;100.00;100985.47;5015535;28;20045;-77
2022/11/05 08:45:29;;;;;;;17.27;4.43;;;;;;;6.19;100.00;100983.81;5036667;28;20052;-77
2022/11/05 08:48:05;;;;;;;8.02;4.10;;;;;;;6.29;100.00;100990.84;5029239;28;20045;-78
2022/11/05 08:50:33;;;;;;;9.25;3.65;;;;;;;6.34;100.00;100992.66;5013497;28;20056;-86
2022/11/05 08:53:00;;;;;;;8.68;4.10;;;;;;;6.43;100.00;100996.25;5005433;28;20045;-78
2022/11/05 08:55:29;;;;;;;6.75;4.25;;;;;;;6.49;100.00;101002.41;5026047;28;20046;-77
2022/11/05 08:58:02;;;;;;;6.78;3.88;;;;;;;6.55;100.00;100997.28;5022133;28;20137;-80
2022/11/05 09:00:34;;;;;;;8.02;3.33;;;;;;;6.64;100.00;100993.94;5040442;28;20045;-77
2022/11/05 09:03:03;;;;;;;8.65;4.70;;;;;;;6.70;100.00;100994.00;5010320;28;20045;-76
2022/11/05 09:05:36;;;;;;;9.60;4.68;;;;;;;6.81;100.00;100999.34;5023195;28;20041;-76
2022/11/05 09:08:14;;;;;;;6.18;3.17;;;;;;;6.98;100.00;101002.16;5034892;28;20045;-81
2022/11/05 09:10:42;;;;;;;7.22;3.65;;;;;;;7.16;100.00;101004.06;5025404;28;20049;-83
2022/11/05 09:13:10;;;;;;;7.13;3.75;;;;;;;7.20;100.00;100998.91;5025249;28;20053;-78
2022/11/05 09:15:36;;;;;;;3.78;2.90;;;;;;;7.28;100.00;101007.66;5033588;28;20053;-78
2022/11/05 09:18:05;;;;;;;8.45;3.97;;;;;;;7.28;100.00;101007.66;5041119;28;20121;-76
2022/11/05 09:20:35;;;;;;;9.13;4.88;;;;;;;7.27;100.00;101010.25;5028269;28;20038;-77
2022/11/05 09:23:01;;;;;;;7.80;4.70;;;;;;;7.28;100.00;101019.81;5026297;28;20053;-79
2022/11/05 09:25:28;;;;;;;13.35;4.45;;;;;;;7.33;100.00;101020.75;5010496;28;20049;-80
2022/11/05 09:28:22;;;;;;;6.15;4.60;;;;;;;7.42;100.00;101019.97;5025773;28;20041;-77
2022/11/05 09:30:51;;;;;;;10.10;4.57;;;;;;;7.48;100.00;101019.16;5007933;28;20551;-76
2022/11/05 09:33:24;;;;;;;7.10;3.95;;;;;;;7.47;100.00;101017.41;5033922;28;20441;-77
2022/11/05 09:35:53;;;;;;;6.38;3.70;;;;;;;7.49;100.00;101021.75;5038745;28;20042;-81
2022/11/05 09:38:19;;;;;;;7.55;4.63;;;;;;;7.51;100.00;101032.19;5019612;28;20064;-81
2022/11/05 09:41:00;;;;;;;5.85;3.88;;;;;;;7.56;100.00;101033.09;5037110;28;20041;-76
2022/11/05 09:43:52;;;;;;;9.02;3.90;;;;;;;7.63;100.00;101029.72;5019984;28;20033;-76
2022/11/05 09:46:23;;;;;;;7.70;3.85;;;;;;;7.68;100.00;101042.78;5031553;28;20129;-83
2022/11/05 09:48:56;;;;;;;6.80;3.53;;;;;;;7.70;100.00;101039.31;5042363;28;20038;-78
2022/11/05 09:51:23;;;;;;;6.10;3.47;;;;;;;7.79;100.00;101035.94;5028797;28;20050;-76
2022/11/05 09:53:52;;;;;;;7.40;4.90;;;;;;;7.86;100.00;101034.25;5029476;28;20060;-79
2022/11/05 09:56:28;;;;;;;6.93;4.03;;;;;;;7.86;100.00;101040.34;5031293;28;20057;-78
2022/11/05 09:59:03;;;;;;;10.35;3.97;;;;;;;7.96;100.00;101033.47;5029108;28;20045;-77
2022/11/05 10:01:36;;;;;;;6.22;3.65;;;;;;;8.00;100.00;101044.78;5033584;28;20041;-77
2022/11/05 10:04:09;;;;;;;6.53;3.97;;;;;;;7.99;100.00;101041.31;5015578;28;20377;-76
2022/11/05 10:06:54;;;;;;;8.20;3.55;;;;;;;8.10;100.00;101044.88;5011007;28;20095;-77
2022/11/05 10:09:27;;;;;;;4.60;4.05;;;;;;;8.14;100.00;101047.53;5031093;28;20053;-76
2022/11/05 10:12:10;;;;;;;8.33;3.53;;;;;;;8.17;100.00;101058.81;5038081;28;20095;-84
2022/11/05 10:14:43;;;;;;;8.88;4.35;;;;;;;8.26;100.00;101047.59;5033497;28;20102;-77
2022/11/05 10:17:24;;;;;;;;;;;;;;;8.32;99.99;101050.25;5032025;28;20112;-77
2022/11/05 10:20:03;;;;;;;4.53;3.65;;;;;;;8.34;100.00;101050.25;5028830;28;19943;-76
2022/11/05 10:22:29;;;;;;;7.60;4.47;;;;;;;8.44;99.60;101060.75;5017080;28;20141;-77
2022/11/05 10:24:56;;;;;;;4.93;3.53;;;;;;;8.53;99.03;101054.75;5017348;28;20049;-76
2022/11/05 10:27:29;;;;;;;7.10;4.07;;;;;;;8.51;98.18;101056.47;5029780;28;20054;-77
2022/11/05 10:29:56;;;;;;;7.18;3.47;;;;;;;8.52;98.08;101050.38;5029319;28;20048;-79
2022/11/05 10:32:35;;;;;;;5.75;3.90;;;;;;;8.50;98.62;101057.34;5029007;28;20049;-77
2022/11/05 10:35:06;;;;;;;7.60;4.90;;;;;;;8.59;97.71;101053.91;5009763;28;20054;-76
2022/11/05 10:37:33;;;;;;;6.72;4.55;;;;;;;8.63;97.10;101062.63;5033159;28;20079;-77
2022/11/05 10:40:00;;;;;;;9.43;4.53;;;;;;;8.67;96.86;101062.66;5025568;28;20050;-76
2022/11/05 10:43:10;;;;;;;13.82;5.00;;;;;;;8.64;97.02;101052.19;5037948;28;20095;-77
2022/11/05 10:45:52;;;;;;;13.40;5.57;;;;;;;8.69;96.58;101054.84;5012173;28;20045;-77
2022/11/05 10:48:38;;;;;;;10.75;4.07;;;;;;;8.78;95.42;101055.75;5026788;28;20041;-81
2022/11/05 10:51:07;;;;;;;8.20;4.72;;;;;;;8.83;94.74;101061.00;5034425;28;20072;-81
2022/11/05 10:53:37;;;;;;;13.63;4.72;;;;;;;8.91;94.29;101059.28;5011533;28;20045;-77
2022/11/05 10:56:04;;;;;;;11.73;5.13;;;;;;;8.90;93.74;101062.78;5029862;28;20041;-76
2022/11/05 10:58:34;;;;;;;8.43;5.25;;;;;;;8.91;94.47;101063.66;5050433;28;20072;-77
2022/11/05 11:01:08;;;;;;;8.70;5.20;;;;;;;8.94;93.83;101059.31;5036982;28;20045;-79
2022/11/05 11:03:48;;;;;;;7.72;4.70;;;;;;;9.04;92.31;101072.41;5024809;28;20037;-80
2022/11/05 11:06:27;;;;;;;10.38;5.55;;;;;;;9.04;91.59;101061.97;5044496;28;20049;-77
2022/11/05 11:08:57;;;;;;;10.18;4.95;;;;;;;9.06;91.67;101062.81;5028427;28;20064;-77
2022/11/05 11:11:39;;;;;;;11.27;6.00;;;;;;;9.03;91.69;101055.84;5030509;28;20123;-79
2022/11/05 11:14:19;;;;;;;9.50;4.93;;;;;;;9.10;90.80;101057.63;5043566;28;20260;-78
2022/11/05 11:16:55;;;;;;;9.18;5.15;;;;;;;9.10;90.98;101060.25;5044532;28;20052;-76
2022/11/05 11:19:36;;;;;;;15.57;5.95;;;;;;;9.10;92.06;101064.63;5034772;28;20140;-80
2022/11/05 11:22:05;;;;;;;7.95;5.35;;;;;;;9.16;91.63;101058.53;5028023;28;20096;-85
2022/11/05 11:24:45;;;;;;;10.18;5.00;;;;;;;9.24;91.25;101062.91;5031352;28;20046;-77
2022/11/05 11:27:28;;;;;;;14.25;6.03;;;;;;;9.41;90.25;101062.06;5029343;28;20045;-76
2022/11/05 11:29:59;;;;;;;7.72;5.32;;;;;;;9.60;89.90;101063.00;5036196;28;20122;-86
2022/11/05 11:32:39;;;;;;;9.30;5.63;;;;;;;9.76;89.26;101063.88;5031421;28;20046;-77
2022/11/05 11:35:08;;;;;;;10.52;6.03;;;;;;;9.76;88.19;101062.16;5047191;28;20045;-77
2022/11/05 11:37:40;;;;;;;17.30;6.20;;;;;;;9.70;88.44;101064.75;5033177;28;20069;-76
2022/11/05 11:40:30;;;;;;;9.00;5.80;;;;;;;9.66;87.69;101064.72;5030065;28;20046;-76
2022/11/05 11:43:06;;;;;;;10.90;5.57;;;;;;;9.57;87.97;101066.47;5015718;28;20552;-77
2022/11/05 11:45:45;;;;;;;10.25;5.75;;;;;;;9.60;88.08;101068.22;5026247;28;20045;-78
2022/11/05 11:48:23;;;;;;;9.15;5.03;;;;;;;9.62;88.74;101070.84;5053179;28;20079;-76
2022/11/05 11:50:50;;;;;;;11.82;5.97;;;;;;;9.66;88.13;101060.41;5055207;28;20041;-76
2022/11/05 11:53:19;;;;;;;10.68;6.28;;;;;;;9.66;87.93;101060.41;5031959;28;20070;-77
2022/11/05 11:55:55;;;;;;;9.88;6.57;;;;;;;9.70;88.05;101061.25;5049116;28;20474;-77
2022/11/05 11:58:24;;;;;;;10.60;5.07;;;;;;;9.76;87.21;101062.16;5040517;28;20076;-77
2022/11/05 12:01:05;;;;;;;10.52;4.97;;;;;;;9.84;85.31;101056.94;5039881;28;20041;-77
2022/11/05 12:03:57;;;;;;;11.88;5.93;;;;;;;9.87;85.05;101061.28;5013280;28;20057;-76
2022/11/05 12:06:42;;;;;;;11.02;6.43;;;;;;;9.91;84.69;101060.41;5035669;28;20037;-77
2022/11/05 12:09:33;;;;;;;8.27;5.90;;;;;;;9.92;85.61;101057.78;5055001;28;20077;-76
2022/11/05 12:12:15;;;;;;;16.25;6.32;;;;;;;9.98;85.17;101045.59;5036710;28;20132;-78
2022/11/05 12:15:13;;;;;;;9.00;5.97;;;;;;;10.04;84.61;101059.53;5037963;28;20037;-76
2022/11/05 12:18:01;;;;;;;10.40;6.53;;;;;;;10.03;82.95;101052.56;5030896;28;20033;-76
2022/11/05 12:21:17;;;;;;;10.82;5.70;;;;;;;10.01;83.07;101042.97;5038015;28;20124;-76
2022/11/05 12:23:51;;;;;;;10.43;6.25;;;;;;;10.02;82.46;101047.34;5031761;28;20485;-76
2022/11/05 12:26:46;;;;;;;10.82;5.63;;;;;;;9.96;83.16;101042.97;5042580;28;20052;-75
2022/11/05 12:29:37;;;;;;;11.52;6.35;;;;;;;9.86;84.08;101044.72;5050781;28;20167;-76
2022/11/05 12:32:49;;;;;;;11.55;7.03;;;;;;;9.93;83.46;101045.59;5034686;28;20044;-79
2022/11/05 12:36:02;;;;;;;11.98;7.07;;;;;;;9.98;82.45;101043.84;5023779;28;20073;-79